createdAt,value
2022-09-06T00:00:56.260Z,1.33
2022-09-06T00:03:23.116Z,1.50
2022-09-06T00:05:50.773Z,1.60
2022-09-06T00:08:17.307Z,1.77
2022-09-06T00:10:43.922Z,1.70
2022-09-06T00:13:11.525Z,1.60
2022-09-06T00:15:38.183Z,1.90
2022-09-06T00:18:06.915Z,1.40
2022-09-06T00:20:34.756Z,1.50
2022-09-06T00:23:04.236Z,1.73
2022-09-06T00:25:31.989Z,1.43
2022-09-06T00:28:00.905Z,1.60
2022-09-06T00:30:28.582Z,1.33
2022-09-06T00:32:55.821Z,1.73
2022-09-06T00:35:24.793Z,1.80
2022-09-06T00:38:01.816Z,1.73
2022-09-06T00:40:30.322Z,1.60
2022-09-06T00:42:57.652Z,1.60
2022-09-06T00:45:27.544Z,1.73
2022-09-06T00:47:54.619Z,1.73
2022-09-06T00:50:21.330Z,1.50
2022-09-06T00:52:50.205Z,1.40
2022-09-06T00:55:17.533Z,1.60
2022-09-06T00:57:46.496Z,1.70
2022-09-06T01:00:13.537Z,1.80
2022-09-06T01:02:40.408Z,1.77
2022-09-06T01:05:07.486Z,1.80
2022-09-06T01:07:58.453Z,1.77
2022-09-06T01:11:01.462Z,1.80
2022-09-06T01:13:41.981Z,1.57
2022-09-06T01:16:26.860Z,1.50
2022-09-06T01:19:24.311Z,2.00
2022-09-06T01:22:16.762Z,1.70
2022-09-06T01:25:28.071Z,1.80
2022-09-06T01:28:06.469Z,1.70
2022-09-06T01:30:38.453Z,1.83
2022-09-06T01:33:25.039Z,1.70
2022-09-06T01:36:00.233Z,1.70
2022-09-06T01:38:27.730Z,1.80
2022-09-06T01:40:54.398Z,1.80
2022-09-06T01:43:30.486Z,1.80
2022-09-06T01:46:18.959Z,2.07
2022-09-06T01:49:16.456Z,1.60
2022-09-06T01:51:55.156Z,1.80
2022-09-06T01:54:51.020Z,1.70
2022-09-06T01:57:24.851Z,1.80
2022-09-06T02:00:19.718Z,1.70
2022-09-06T02:03:16.987Z,1.87
2022-09-06T02:05:50.466Z,2.10
2022-09-06T02:08:23.449Z,1.90
2022-09-06T02:10:55.546Z,2.40
2022-09-06T02:13:25.917Z,1.60
2022-09-06T02:15:59.121Z,1.67
2022-09-06T02:18:33.450Z,1.90
2022-09-06T02:21:03.078Z,1.73
2022-09-06T02:23:36.164Z,1.90
2022-09-06T02:26:08.523Z,1.70
2022-09-06T02:28:35.602Z,2.10
2022-09-06T02:31:07.122Z,1.70
2022-09-06T02:33:35.860Z,1.83
2022-09-06T02:36:06.258Z,1.80
2022-09-06T02:38:35.475Z,2.00
2022-09-06T02:41:03.351Z,1.80
2022-09-06T02:43:30.092Z,1.97
2022-09-06T02:45:56.757Z,1.90
2022-09-06T02:48:23.501Z,1.57
2022-09-06T02:50:50.166Z,1.90
2022-09-06T02:53:16.966Z,1.80
2022-09-06T02:55:45.749Z,1.90
2022-09-06T02:58:15.935Z,2.03
2022-09-06T03:00:42.558Z,1.73
2022-09-06T03:03:09.157Z,1.80
2022-09-06T03:05:35.795Z,2.07
2022-09-06T03:08:02.606Z,1.63
2022-09-06T03:10:29.367Z,2.07
2022-09-06T03:12:55.974Z,1.90
2022-09-06T03:15:22.560Z,2.00
2022-09-06T03:17:49.152Z,2.10
2022-09-06T03:20:15.707Z,1.83
2022-09-06T03:22:42.470Z,1.80
2022-09-06T03:25:10.430Z,2.27
2022-09-06T03:27:37.459Z,2.00
2022-09-06T03:30:05.901Z,1.90
2022-09-06T03:32:32.663Z,1.90
2022-09-06T03:34:59.691Z,1.90
2022-09-06T03:37:26.707Z,2.00
2022-09-06T03:39:53.513Z,1.93
2022-09-06T03:42:20.518Z,2.10
2022-09-06T03:44:47.137Z,2.00
2022-09-06T03:47:17.529Z,2.20
2022-09-06T03:49:46.285Z,1.80
2022-09-06T03:52:12.914Z,2.10
2022-09-06T03:54:39.559Z,1.90
2022-09-06T03:57:07.009Z,2.00
2022-09-06T03:59:33.594Z,1.90
2022-09-06T04:02:00.192Z,1.83
2022-09-06T04:04:26.842Z,1.80
2022-09-06T04:06:53.426Z,1.70
2022-09-06T04:09:20.086Z,1.83
2022-09-06T04:11:47.045Z,2.07
2022-09-06T04:14:13.674Z,1.97
2022-09-06T04:16:40.381Z,1.90
2022-09-06T04:19:07.144Z,1.80
2022-09-06T04:21:33.802Z,2.10
2022-09-06T04:24:00.426Z,2.27
2022-09-06T04:26:27.093Z,1.90
2022-09-06T04:28:53.665Z,1.87
2022-09-06T04:31:20.354Z,2.00
2022-09-06T04:33:47.061Z,1.90
2022-09-06T04:36:13.688Z,1.80
2022-09-06T04:38:42.586Z,1.90
2022-09-06T04:41:12.247Z,1.97
2022-09-06T04:43:38.921Z,1.97
2022-09-06T04:46:22.208Z,1.90
2022-09-06T04:48:49.873Z,1.70
2022-09-06T04:51:16.568Z,2.10
2022-09-06T04:53:43.277Z,1.90
2022-09-06T04:56:19.769Z,1.83
2022-09-06T04:58:48.325Z,1.93
2022-09-06T05:01:15.711Z,1.60
2022-09-06T05:03:42.535Z,1.63
2022-09-06T05:06:24.667Z,1.80
2022-09-06T05:08:52.052Z,1.53
2022-09-06T05:11:18.838Z,1.90
2022-09-06T05:13:46.616Z,1.90
2022-09-06T05:16:13.742Z,1.80
2022-09-06T05:18:40.453Z,2.10
2022-09-06T05:21:07.736Z,1.60
2022-09-06T05:23:34.990Z,1.90
2022-09-06T05:26:01.851Z,1.80
2022-09-06T05:28:28.623Z,1.70
2022-09-06T05:31:24.294Z,1.70
2022-09-06T05:33:53.485Z,1.73
2022-09-06T05:36:20.609Z,1.30
2022-09-06T05:38:47.223Z,1.60
2022-09-06T05:41:13.762Z,2.00
2022-09-06T05:43:40.558Z,1.77
2022-09-06T05:46:07.350Z,1.30
2022-09-06T05:48:37.008Z,1.60
2022-09-06T05:51:12.664Z,1.70
2022-09-06T05:53:42.007Z,1.43
2022-09-06T05:56:09.758Z,1.57
2022-09-06T05:58:36.779Z,1.60
2022-09-06T06:01:15.699Z,1.50
2022-09-06T06:03:43.438Z,1.93
2022-09-06T06:06:10.094Z,1.40
2022-09-06T06:08:36.693Z,1.53
2022-09-06T06:11:03.253Z,1.70
2022-09-06T06:13:31.823Z,1.60
2022-09-06T06:15:58.428Z,1.43
2022-09-06T06:18:25.098Z,1.53
2022-09-06T06:20:51.909Z,1.60
2022-09-06T06:23:18.505Z,3.53
2022-09-06T06:25:45.090Z,1.30
2022-09-06T06:28:11.669Z,1.40
2022-09-06T06:30:38.212Z,1.80
2022-09-06T06:33:04.791Z,1.30
2022-09-06T06:35:31.329Z,1.50
2022-09-06T06:37:58.045Z,1.80
2022-09-06T06:40:24.593Z,1.60
2022-09-06T06:42:51.228Z,1.60
2022-09-06T06:45:18.733Z,1.70
2022-09-06T06:47:49.874Z,1.67
2022-09-06T06:50:16.905Z,1.60
2022-09-06T06:52:43.484Z,1.50
2022-09-06T06:55:10.093Z,1.80
2022-09-06T06:57:36.706Z,1.73
2022-09-06T07:00:04.954Z,1.50
2022-09-06T07:02:31.669Z,1.60
2022-09-06T07:04:58.416Z,1.50
2022-09-06T07:07:33.575Z,1.57
2022-09-06T07:12:48.887Z,1.63
2022-09-06T07:15:15.650Z,1.60
2022-09-06T07:17:42.471Z,1.60
2022-09-06T07:20:12.738Z,1.90
2022-09-06T07:22:40.651Z,1.60
2022-09-06T07:25:09.227Z,1.40
2022-09-06T07:27:51.011Z,1.60
2022-09-06T07:30:20.008Z,1.53
2022-09-06T07:32:47.245Z,1.67
2022-09-06T07:35:14.141Z,1.70
2022-09-06T07:37:40.886Z,1.57
2022-09-06T07:40:08.508Z,1.40
2022-09-06T07:42:36.387Z,1.63
2022-09-06T07:45:04.331Z,1.80
2022-09-06T07:53:11.075Z,1.50
2022-09-06T07:55:45.585Z,1.43
2022-09-06T07:58:12.190Z,1.80
2022-09-06T08:00:41.176Z,1.67
2022-09-06T08:03:08.072Z,1.43
2022-09-06T08:11:08.065Z,1.30
2022-09-06T08:13:36.216Z,1.40
2022-09-06T08:16:08.526Z,1.73
2022-09-06T08:18:36.293Z,1.70
2022-09-06T08:21:15.118Z,1.70
2022-09-06T08:23:49.214Z,1.67
2022-09-06T08:26:16.890Z,1.60
2022-09-06T08:28:43.966Z,2.10
2022-09-06T08:31:12.952Z,1.67
2022-09-06T08:33:40.859Z,2.13
2022-09-06T08:36:08.807Z,1.97
2022-09-06T08:38:35.934Z,1.63
2022-09-06T08:41:10.889Z,1.77
2022-09-06T08:43:38.554Z,1.70
2022-09-06T08:46:07.849Z,1.43
2022-09-06T08:48:40.026Z,1.67
2022-09-06T08:51:29.065Z,1.70
2022-09-06T08:54:03.226Z,1.70
2022-09-06T08:56:42.626Z,1.80
2022-09-06T08:59:14.021Z,1.70
2022-09-06T09:01:54.625Z,1.53
2022-09-06T09:04:25.924Z,1.80
2022-09-06T09:06:59.969Z,1.80
2022-09-06T09:09:30.261Z,1.60
2022-09-06T09:11:59.394Z,1.90
2022-09-06T09:14:35.473Z,1.97
2022-09-06T09:17:06.303Z,1.80
2022-09-06T09:19:36.740Z,2.27
2022-09-06T09:22:04.242Z,1.83
2022-09-06T09:24:32.353Z,2.17
2022-09-06T09:27:11.468Z,1.87
2022-09-06T09:32:49.593Z,1.93
2022-09-06T09:35:33.967Z,1.90
2022-09-06T09:38:14.001Z,1.87
2022-09-06T09:40:57.620Z,2.17
2022-09-06T09:43:29.650Z,2.00
2022-09-06T09:46:08.440Z,2.30
2022-09-06T09:48:35.169Z,2.00
2022-09-06T09:51:27.436Z,1.97
2022-09-06T09:53:58.833Z,1.80
2022-09-06T09:56:43.801Z,1.90
2022-09-06T09:59:21.880Z,1.97
2022-09-06T10:01:48.819Z,4.60
2022-09-06T10:07:17.105Z,6.13
2022-09-06T10:09:47.536Z,2.67
2022-09-06T10:12:34.273Z,2.13
2022-09-06T10:15:03.748Z,2.23
2022-09-06T10:17:36.408Z,2.10
2022-09-06T10:20:10.613Z,2.50
2022-09-06T10:23:01.653Z,2.00
2022-09-06T10:25:37.969Z,2.20
2022-09-06T10:28:30.365Z,2.07
2022-09-06T10:31:11.932Z,2.30
2022-09-06T10:33:50.396Z,2.20
2022-09-06T10:36:21.555Z,2.40
2022-09-06T10:38:55.353Z,2.40
2022-09-06T10:41:21.888Z,2.30
2022-09-06T10:44:05.361Z,2.40
2022-09-06T10:46:35.306Z,2.57
2022-09-06T10:49:02.064Z,2.43
2022-09-06T10:51:45.761Z,2.83
2022-09-06T10:54:14.335Z,2.40
2022-09-06T10:56:50.289Z,2.30
2022-09-06T11:02:02.266Z,2.20
2022-09-06T11:07:34.629Z,2.40
2022-09-06T11:13:49.193Z,2.27
2022-09-06T11:16:24.934Z,2.60
2022-09-06T11:19:08.120Z,2.17
2022-09-06T11:22:23.166Z,2.50
2022-09-06T11:25:27.524Z,2.40
2022-09-06T11:27:58.348Z,2.40
2022-09-06T11:30:27.215Z,2.40
2022-09-06T11:33:21.416Z,2.60
2022-09-06T11:35:48.066Z,1.97
2022-09-06T11:38:14.567Z,2.40
2022-09-06T11:40:45.143Z,2.37
2022-09-06T11:43:15.851Z,2.43
2022-09-06T11:45:42.411Z,2.10
2022-09-06T11:48:24.289Z,2.03
2022-09-06T11:50:53.960Z,2.30
2022-09-06T11:53:25.411Z,2.50
2022-09-06T11:56:12.906Z,2.63
2022-09-06T11:58:42.359Z,2.13
2022-09-06T12:01:18.900Z,2.40
2022-09-06T12:04:04.876Z,2.07
2022-09-06T12:07:03.714Z,2.20
2022-09-06T12:09:33.687Z,2.43
2022-09-06T12:12:01.382Z,2.20
2022-09-06T12:14:42.419Z,2.17
2022-09-06T12:17:09.737Z,2.17
2022-09-06T12:19:43.940Z,2.13
2022-09-06T12:22:29.396Z,2.10
2022-09-06T12:25:15.299Z,2.23
2022-09-06T12:28:05.610Z,2.60
2022-09-06T12:30:39.219Z,2.37
2022-09-06T12:33:11.291Z,2.07
2022-09-06T12:38:25.925Z,2.10
2022-09-06T12:40:58.414Z,1.90
2022-09-06T12:43:25.988Z,1.90
2022-09-06T12:45:53.395Z,2.40
2022-09-06T12:48:41.416Z,2.10
2022-09-06T12:51:20.209Z,2.10
2022-09-06T12:53:54.811Z,2.23
2022-09-06T12:56:23.509Z,2.10
2022-09-06T12:58:50.678Z,2.33
2022-09-06T13:01:26.374Z,2.23
2022-09-06T13:04:02.961Z,2.20
2022-09-06T13:06:33.969Z,2.10
2022-09-06T13:09:01.679Z,2.63
2022-09-06T13:11:36.112Z,1.90
2022-09-06T13:14:14.218Z,1.87
2022-09-06T13:16:50.741Z,1.93
2022-09-06T13:19:33.311Z,2.07
2022-09-06T13:22:01.742Z,1.90
2022-09-06T13:24:34.428Z,2.10
2022-09-06T13:27:21.210Z,1.87
2022-09-06T13:30:02.622Z,1.90
2022-09-06T13:32:29.694Z,2.03
2022-09-06T13:34:59.052Z,2.10
2022-09-06T13:37:31.735Z,2.27
2022-09-06T13:39:59.369Z,2.30
2022-09-06T13:42:34.126Z,2.10
2022-09-06T13:45:27.838Z,2.20
2022-09-06T13:48:03.518Z,2.47
2022-09-06T13:50:41.215Z,1.90
2022-09-06T13:53:07.875Z,1.97
2022-09-06T13:55:34.867Z,2.10
2022-09-06T13:58:01.559Z,2.40
2022-09-06T14:00:28.322Z,2.00
2022-09-06T14:02:55.684Z,2.20
2022-09-06T14:05:22.500Z,2.00
2022-09-06T14:07:49.073Z,2.30
2022-09-06T14:10:15.793Z,2.00
2022-09-06T14:12:42.358Z,2.70
2022-09-06T14:15:10.124Z,3.03
2022-09-06T14:17:36.810Z,2.83
2022-09-06T14:20:04.087Z,2.70
2022-09-06T14:22:30.815Z,2.90
2022-09-06T14:24:57.453Z,2.87
2022-09-06T14:27:24.122Z,3.23
2022-09-06T14:29:50.816Z,2.93
2022-09-06T14:32:22.246Z,2.70
2022-09-06T14:34:51.781Z,2.40
2022-09-06T14:37:18.591Z,2.53
2022-09-06T14:39:45.283Z,2.37
2022-09-06T14:42:11.853Z,2.20
2022-09-06T14:44:38.477Z,2.27
2022-09-06T14:47:05.486Z,2.23
2022-09-06T14:49:32.326Z,2.40
2022-09-06T14:51:58.880Z,2.37
2022-09-06T14:54:29.097Z,2.73
2022-09-06T14:56:56.416Z,2.30
2022-09-06T14:59:23.019Z,2.63
2022-09-06T15:01:49.670Z,2.60
2022-09-06T15:04:16.574Z,3.10
2022-09-06T15:06:47.141Z,3.00
2022-09-06T15:09:18.480Z,3.17
2022-09-06T15:11:46.231Z,2.87
2022-09-06T15:14:22.612Z,3.10
2022-09-06T15:16:55.783Z,2.50
2022-09-06T15:19:24.993Z,2.40
2022-09-06T15:21:51.760Z,2.37
2022-09-06T15:24:18.830Z,2.10
2022-09-06T15:26:46.060Z,2.33
2022-09-06T15:29:14.001Z,2.00
2022-09-06T15:31:42.006Z,2.10
2022-09-06T15:34:09.922Z,2.10
2022-09-06T15:36:38.011Z,2.20
2022-09-06T15:39:05.808Z,2.33
2022-09-06T15:41:35.748Z,2.10
2022-09-06T15:44:14.447Z,2.30
2022-09-06T15:46:47.739Z,2.03
2022-09-06T15:49:23.259Z,1.90
2022-09-06T15:51:57.020Z,2.00
2022-09-06T15:54:43.714Z,1.60
2022-09-06T15:57:10.740Z,2.00
2022-09-06T15:59:37.520Z,1.87
2022-09-06T16:02:04.319Z,1.70
2022-09-06T16:04:30.954Z,2.00
2022-09-06T16:06:57.558Z,1.97
2022-09-06T16:09:24.515Z,2.00
2022-09-06T16:11:51.059Z,2.10
2022-09-06T16:14:18.433Z,2.17
2022-09-06T16:16:45.743Z,2.00
2022-09-06T16:19:13.314Z,1.90
2022-09-06T16:21:42.186Z,2.20
2022-09-06T16:24:11.459Z,2.00
2022-09-06T16:26:41.681Z,2.20
2022-09-06T16:29:09.892Z,2.07
2022-09-06T16:31:40.351Z,2.40
2022-09-06T16:34:11.888Z,2.07
2022-09-06T16:36:38.626Z,2.33
2022-09-06T16:39:06.196Z,2.20
2022-09-06T16:41:40.865Z,2.10
2022-09-06T16:44:09.362Z,2.37
2022-09-06T16:46:36.354Z,2.00
2022-09-06T16:49:04.562Z,2.20
2022-09-06T16:51:31.623Z,1.90
2022-09-06T16:53:59.916Z,2.10
2022-09-06T16:56:31.787Z,1.93
2022-09-06T16:59:00.550Z,1.93
2022-09-06T17:01:28.553Z,2.13
2022-09-06T17:03:55.867Z,2.33
2022-09-06T17:06:23.940Z,2.00
2022-09-06T17:08:51.750Z,2.00
2022-09-06T17:11:21.046Z,2.17
2022-09-06T17:13:49.916Z,2.00
2022-09-06T17:16:36.451Z,1.80
2022-09-06T17:19:04.959Z,2.07
2022-09-06T17:21:31.860Z,1.90
2022-09-06T17:24:04.697Z,2.10
2022-09-06T17:26:33.676Z,1.83
2022-09-06T17:29:00.754Z,2.00
2022-09-06T17:31:27.411Z,1.60
2022-09-06T17:33:54.022Z,1.90
2022-09-06T17:36:23.759Z,2.03
2022-09-06T17:38:53.576Z,1.80
2022-09-06T17:41:20.273Z,1.80
2022-09-06T17:43:47.591Z,1.93
2022-09-06T17:46:14.840Z,1.90
2022-09-06T17:48:43.687Z,1.60
2022-09-06T17:51:11.781Z,2.10
2022-09-06T17:53:38.964Z,2.00
2022-09-06T17:56:08.144Z,1.90
2022-09-06T17:58:35.138Z,1.90
2022-09-06T18:01:09.475Z,1.80
2022-09-06T18:03:39.451Z,2.07
2022-09-06T18:06:11.885Z,1.93
2022-09-06T18:08:41.459Z,1.97
2022-09-06T18:11:14.048Z,1.77
2022-09-06T18:13:43.013Z,1.80
2022-09-06T18:16:10.908Z,1.80
2022-09-06T18:18:37.977Z,2.70
2022-09-06T18:21:07.004Z,1.87
2022-09-06T18:23:34.903Z,2.23
2022-09-06T18:26:07.049Z,2.10
2022-09-06T18:28:36.495Z,2.00
2022-09-06T18:31:08.766Z,1.83
2022-09-06T18:33:36.608Z,1.90
2022-09-06T18:36:07.165Z,2.00
2022-09-06T18:38:38.610Z,1.83
2022-09-06T18:41:07.815Z,1.80
2022-09-06T18:43:38.660Z,2.00
2022-09-06T18:46:08.522Z,2.10
2022-09-06T18:48:37.195Z,2.30
2022-09-06T18:51:11.512Z,2.50
2022-09-06T18:53:57.455Z,2.00
2022-09-06T18:56:27.134Z,2.10
2022-09-06T18:59:01.824Z,2.30
2022-09-06T19:01:30.437Z,2.10
2022-09-06T19:03:58.002Z,2.30
2022-09-06T19:06:27.752Z,2.10
2022-09-06T19:08:58.509Z,2.07
2022-09-06T19:11:33.797Z,2.30
2022-09-06T19:14:01.161Z,1.87
2022-09-06T19:16:32.147Z,2.30
2022-09-06T19:19:07.599Z,2.00
2022-09-06T19:21:45.799Z,2.20
2022-09-06T19:24:14.839Z,2.33
2022-09-06T19:26:44.920Z,2.13
2022-09-06T19:29:19.114Z,2.10
2022-09-06T19:31:50.655Z,2.17
2022-09-06T19:34:19.530Z,2.20
2022-09-06T19:36:46.966Z,2.13
2022-09-06T19:39:16.408Z,1.97
2022-09-06T19:41:45.640Z,1.90
2022-09-06T19:44:14.184Z,1.87
2022-09-06T19:46:45.585Z,2.33
2022-09-06T19:49:16.791Z,2.10
2022-09-06T19:51:46.699Z,2.60
2022-09-06T19:54:15.704Z,2.70
2022-09-06T19:56:44.324Z,2.83
2022-09-06T19:59:14.150Z,3.00
2022-09-06T20:01:53.914Z,3.37
2022-09-06T20:04:21.078Z,3.07
2022-09-06T20:07:05.188Z,3.23
2022-09-06T20:09:34.340Z,3.33
2022-09-06T20:12:00.988Z,3.33
2022-09-06T20:14:33.652Z,3.20
2022-09-06T20:17:29.311Z,3.83
2022-09-06T20:19:54.581Z,3.40
2022-09-06T20:22:21.299Z,3.20
2022-09-06T20:24:54.011Z,3.00
2022-09-06T20:27:29.995Z,3.10
2022-09-06T20:33:12.349Z,2.77
2022-09-06T20:36:19.963Z,2.93
2022-09-06T20:38:47.812Z,2.50
2022-09-06T20:41:19.969Z,2.90
2022-09-06T20:43:55.044Z,2.37
2022-09-06T20:46:24.299Z,2.03
2022-09-06T20:48:51.906Z,2.40
2022-09-06T20:51:21.331Z,2.10
2022-09-06T20:53:55.120Z,1.83
2022-09-06T20:56:24.563Z,2.30
2022-09-06T20:58:57.041Z,2.23
2022-09-06T21:01:30.442Z,1.90
2022-09-06T21:03:59.646Z,2.40
2022-09-06T21:06:28.804Z,2.10
2022-09-06T21:08:56.453Z,2.37
2022-09-06T21:11:23.453Z,2.20
2022-09-06T21:13:52.081Z,2.23
2022-09-06T21:16:24.239Z,2.40
2022-09-06T21:19:03.026Z,2.20
2022-09-06T21:21:34.677Z,2.00
2022-09-06T21:24:03.108Z,1.97
2022-09-06T21:26:29.883Z,2.40
2022-09-06T21:28:56.641Z,1.90
2022-09-06T21:31:31.742Z,2.00
2022-09-06T21:34:02.990Z,2.07
2022-09-06T21:36:32.517Z,2.17
2022-09-06T21:39:04.753Z,2.10
2022-09-06T21:41:31.603Z,2.20
2022-09-06T21:44:00.279Z,1.97
2022-09-06T21:46:33.227Z,2.20
2022-09-06T21:49:03.999Z,2.13
2022-09-06T21:51:31.474Z,2.10
2022-09-06T21:53:58.558Z,2.30
2022-09-06T21:56:25.821Z,2.30
2022-09-06T21:58:55.543Z,1.90
2022-09-06T22:01:26.991Z,1.93
2022-09-06T22:03:54.178Z,2.13
2022-09-06T22:06:25.316Z,2.10
2022-09-06T22:08:52.637Z,2.20
2022-09-06T22:11:25.535Z,2.00
2022-09-06T22:13:52.541Z,1.90
2022-09-06T22:16:21.865Z,1.80
2022-09-06T22:18:49.639Z,1.97
2022-09-06T22:21:20.202Z,2.50
2022-09-06T22:23:55.199Z,2.27
2022-09-06T22:26:22.625Z,1.90
2022-09-06T22:28:54.403Z,2.23
2022-09-06T22:31:22.007Z,2.20
2022-09-06T22:33:49.004Z,2.20
2022-09-06T22:36:15.702Z,1.90
2022-09-06T22:38:42.225Z,2.20
2022-09-06T22:41:09.444Z,1.90
2022-09-06T22:43:36.017Z,2.00
2022-09-06T22:46:05.922Z,2.10
2022-09-06T22:48:33.778Z,2.50
2022-09-06T22:51:02.099Z,2.10
2022-09-06T22:53:30.358Z,2.10
2022-09-06T22:55:57.151Z,2.13
2022-09-06T22:58:24.511Z,2.17
2022-09-06T23:00:51.475Z,2.17
2022-09-06T23:03:18.144Z,2.00
2022-09-06T23:05:44.748Z,2.20
2022-09-06T23:08:11.330Z,2.10
2022-09-06T23:10:44.920Z,2.00
2022-09-06T23:13:11.632Z,2.10
2022-09-06T23:15:40.902Z,1.80
2022-09-06T23:18:08.498Z,2.10
2022-09-06T23:20:37.265Z,1.90
2022-09-06T23:23:07.806Z,1.87
2022-09-06T23:25:38.896Z,2.20
2022-09-06T23:28:05.850Z,2.00
2022-09-06T23:30:32.695Z,1.97
2022-09-06T23:32:59.243Z,2.27
2022-09-06T23:35:25.854Z,1.90
2022-09-06T23:37:52.978Z,1.90
2022-09-06T23:40:19.780Z,1.97
2022-09-06T23:42:46.709Z,2.17
2022-09-06T23:45:13.379Z,2.20
2022-09-06T23:47:40.124Z,2.20
2022-09-06T23:50:07.412Z,2.00
2022-09-06T23:52:33.971Z,2.27
2022-09-06T23:55:00.549Z,2.10
2022-09-06T23:57:27.109Z,2.30
2022-09-06T23:59:53.885Z,2.27
